createdAt,value
2022-11-24T00:01:23.006Z,3.35
2022-11-24T00:04:16.346Z,3.38
2022-11-24T00:06:43.354Z,3.39
2022-11-24T00:09:10.925Z,3.36
2022-11-24T00:11:37.964Z,3.28
2022-11-24T00:14:05.892Z,3.26
2022-11-24T00:16:35.677Z,3.29
2022-11-24T00:19:04.347Z,3.23
2022-11-24T00:21:31.888Z,3.20
2022-11-24T00:23:59.399Z,3.26
2022-11-24T00:26:31.901Z,3.18
2022-11-24T00:29:01.779Z,3.23
2022-11-24T00:31:30.871Z,3.19
2022-11-24T00:34:00.172Z,3.20
2022-11-24T00:36:29.669Z,3.21
2022-11-24T00:38:59.078Z,3.15
2022-11-24T00:41:27.103Z,3.19
2022-11-24T00:43:54.817Z,3.22
2022-11-24T00:46:22.533Z,3.18
2022-11-24T00:48:49.928Z,3.12
2022-11-24T00:51:18.336Z,3.09
2022-11-24T00:53:45.819Z,3.11
2022-11-24T00:56:13.416Z,3.13
2022-11-24T00:58:41.100Z,3.10
2022-11-24T01:01:11.922Z,3.12
2022-11-24T01:03:39.397Z,3.09
2022-11-24T01:06:09.728Z,3.07
2022-11-24T01:08:38.011Z,3.02
2022-11-24T01:11:19.075Z,3.06
2022-11-24T01:13:49.312Z,3.04
2022-11-24T01:16:25.944Z,3.04
2022-11-24T01:18:53.336Z,3.03
2022-11-24T01:21:21.173Z,2.95
2022-11-24T01:23:48.621Z,2.92
2022-11-24T01:26:18.140Z,2.97
2022-11-24T01:28:47.373Z,2.95
2022-11-24T01:31:15.624Z,2.98
2022-11-24T01:33:43.122Z,2.98
2022-11-24T01:36:10.196Z,2.95
2022-11-24T01:38:37.244Z,2.96
2022-11-24T01:41:19.595Z,2.97
2022-11-24T01:43:47.759Z,2.96
2022-11-24T01:46:21.043Z,2.92
2022-11-24T01:48:57.202Z,2.90
2022-11-24T01:51:27.015Z,2.93
2022-11-24T01:54:01.304Z,2.96
2022-11-24T01:56:28.824Z,2.98
2022-11-24T01:58:57.896Z,2.96
2022-11-24T02:01:25.280Z,3.00
2022-11-24T02:03:52.904Z,3.02
2022-11-24T02:06:23.858Z,2.98
2022-11-24T02:09:12.029Z,2.99
2022-11-24T02:11:39.963Z,2.99
2022-11-24T02:14:09.708Z,3.01
2022-11-24T02:16:37.478Z,2.99
2022-11-24T02:19:11.700Z,2.98
2022-11-24T02:21:38.683Z,2.92
2022-11-24T02:24:18.489Z,2.88
2022-11-24T02:26:47.322Z,2.86
2022-11-24T02:29:20.214Z,2.87
2022-11-24T02:32:00.133Z,2.88
2022-11-24T02:34:27.449Z,2.87
2022-11-24T02:36:54.452Z,2.88
2022-11-24T02:39:21.580Z,2.83
2022-11-24T02:41:54.788Z,2.84
2022-11-24T02:44:25.109Z,2.77
2022-11-24T02:47:08.587Z,2.81
2022-11-24T02:49:36.084Z,2.76
2022-11-24T02:52:04.036Z,2.78
2022-11-24T02:54:31.523Z,2.76
2022-11-24T02:56:58.920Z,2.71
2022-11-24T02:59:26.273Z,2.70
2022-11-24T03:01:53.312Z,2.67
2022-11-24T03:04:20.349Z,2.67
2022-11-24T03:06:47.625Z,2.66
2022-11-24T03:09:14.630Z,2.66
2022-11-24T03:11:41.692Z,2.63
2022-11-24T03:14:09.115Z,2.64
2022-11-24T03:16:36.256Z,2.63
2022-11-24T03:19:03.987Z,2.62
2022-11-24T03:21:31.392Z,2.59
2022-11-24T03:23:58.365Z,2.61
2022-11-24T03:26:26.351Z,2.55
2022-11-24T03:28:55.870Z,2.49
2022-11-24T03:31:23.937Z,2.49
2022-11-24T03:33:51.026Z,2.49
2022-11-24T03:36:18.519Z,2.46
2022-11-24T03:38:45.518Z,2.46
2022-11-24T03:41:12.902Z,2.45
2022-11-24T03:43:43.648Z,2.43
2022-11-24T03:46:12.464Z,2.42
2022-11-24T03:48:39.727Z,2.40
2022-11-24T03:51:07.493Z,2.41
2022-11-24T03:53:34.544Z,2.32
2022-11-24T03:56:02.209Z,2.35
2022-11-24T03:58:30.260Z,2.36
2022-11-24T04:00:57.670Z,2.37
2022-11-24T04:03:25.339Z,2.44
2022-11-24T04:05:52.661Z,2.45
2022-11-24T04:08:19.825Z,2.43
2022-11-24T04:10:53.948Z,2.40
2022-11-24T04:13:24.301Z,2.37
2022-11-24T04:15:51.832Z,2.38
2022-11-24T04:18:19.458Z,2.37
2022-11-24T04:20:49.428Z,2.35
2022-11-24T04:23:16.851Z,2.35
2022-11-24T04:25:43.909Z,2.38
2022-11-24T04:28:11.923Z,2.37
2022-11-24T04:30:44.499Z,2.38
2022-11-24T04:33:11.812Z,2.30
2022-11-24T04:35:38.858Z,2.30
2022-11-24T04:38:06.140Z,2.23
2022-11-24T04:40:33.159Z,2.27
2022-11-24T04:43:00.145Z,2.24
2022-11-24T04:45:27.466Z,2.22
2022-11-24T04:47:54.490Z,2.27
2022-11-24T04:50:21.519Z,2.29
2022-11-24T04:52:48.918Z,2.26
2022-11-24T04:55:15.959Z,2.22
2022-11-24T04:57:42.955Z,2.20
2022-11-24T05:00:10.961Z,2.22
2022-11-24T05:02:38.112Z,2.23
2022-11-24T05:05:06.537Z,2.29
2022-11-24T05:07:34.792Z,2.23
2022-11-24T05:10:20.405Z,2.23
2022-11-24T05:12:55.499Z,2.23
2022-11-24T05:15:22.869Z,2.24
2022-11-24T05:17:50.136Z,2.28
2022-11-24T05:20:18.232Z,2.25
2022-11-24T05:22:45.298Z,2.26
2022-11-24T05:25:13.562Z,2.28
2022-11-24T05:27:40.720Z,2.26
2022-11-24T05:30:08.932Z,2.28
2022-11-24T05:32:36.224Z,2.30
2022-11-24T05:35:04.533Z,2.33
2022-11-24T05:37:31.667Z,2.37
2022-11-24T05:39:58.966Z,2.42
2022-11-24T05:42:54.842Z,2.43
2022-11-24T05:45:22.530Z,2.46
2022-11-24T05:47:50.727Z,2.55
2022-11-24T05:50:19.368Z,2.60
2022-11-24T05:52:46.806Z,2.61
2022-11-24T05:55:19.411Z,2.61
2022-11-24T05:57:46.828Z,2.60
2022-11-24T06:00:15.011Z,2.62
2022-11-24T06:02:42.446Z,2.61
2022-11-24T06:05:09.633Z,2.62
2022-11-24T06:07:36.708Z,2.68
2022-11-24T06:10:04.400Z,2.66
2022-11-24T06:12:31.451Z,2.68
2022-11-24T06:14:58.451Z,2.65
2022-11-24T06:17:25.754Z,2.68
2022-11-24T06:19:52.924Z,2.67
2022-11-24T06:22:19.999Z,2.63
2022-11-24T06:24:47.333Z,2.66
2022-11-24T06:27:14.420Z,2.62
2022-11-24T06:29:41.621Z,2.61
2022-11-24T06:32:09.194Z,2.55
2022-11-24T06:34:36.641Z,2.58
2022-11-24T06:37:03.853Z,2.60
2022-11-24T06:39:31.189Z,2.64
2022-11-24T06:41:58.380Z,2.66
2022-11-24T06:44:25.394Z,2.70
2022-11-24T06:46:52.697Z,2.69
2022-11-24T06:49:19.707Z,2.73
2022-11-24T06:51:46.713Z,2.83
2022-11-24T06:54:15.969Z,2.89
2022-11-24T06:56:43.009Z,2.96
2022-11-24T06:59:17.222Z,2.96
2022-11-24T07:01:44.748Z,3.03
2022-11-24T07:04:11.786Z,3.08
2022-11-24T07:06:41.268Z,3.18
2022-11-24T07:09:09.672Z,3.26
2022-11-24T07:11:37.032Z,3.21
2022-11-24T07:14:04.663Z,3.25
2022-11-24T07:16:33.497Z,3.22
2022-11-24T07:19:00.796Z,3.28
2022-11-24T07:21:28.607Z,3.32
2022-11-24T07:23:57.382Z,3.32
2022-11-24T07:26:25.436Z,3.36
2022-11-24T07:28:52.457Z,3.40
2022-11-24T07:31:21.548Z,3.44
2022-11-24T07:33:49.916Z,3.42
2022-11-24T07:36:17.092Z,3.43
2022-11-24T07:38:44.375Z,3.49
2022-11-24T07:41:12.975Z,3.54
2022-11-24T07:43:40.090Z,3.57
2022-11-24T07:46:10.447Z,3.58
2022-11-24T07:48:37.477Z,3.51
2022-11-24T07:51:05.255Z,3.47
2022-11-24T07:53:33.359Z,3.51
2022-11-24T07:56:02.166Z,3.48
2022-11-24T07:58:33.007Z,3.50
2022-11-24T08:01:09.638Z,3.50
2022-11-24T08:03:37.566Z,3.56
2022-11-24T08:08:51.994Z,3.58
2022-11-24T08:11:18.973Z,3.54
2022-11-24T08:13:46.332Z,3.51
2022-11-24T08:16:15.976Z,3.54
2022-11-24T08:18:43.720Z,3.45
2022-11-24T08:21:13.533Z,3.50
2022-11-24T08:23:41.293Z,3.47
2022-11-24T08:26:15.854Z,3.41
2022-11-24T08:28:43.840Z,3.49
2022-11-24T08:31:13.109Z,3.44
2022-11-24T08:33:40.576Z,3.49
2022-11-24T08:36:10.265Z,3.48
2022-11-24T08:38:37.730Z,3.50
2022-11-24T08:41:07.425Z,3.56
2022-11-24T08:43:35.128Z,3.57
2022-11-24T08:46:04.882Z,3.62
2022-11-24T08:48:32.551Z,3.59
2022-11-24T08:51:09.353Z,3.61
2022-11-24T08:53:36.689Z,3.60
2022-11-24T08:56:05.097Z,3.59
2022-11-24T08:58:32.446Z,3.59
2022-11-24T09:01:10.739Z,3.56
2022-11-24T09:03:41.273Z,3.53
2022-11-24T09:06:11.883Z,3.53
2022-11-24T09:08:39.376Z,3.50
2022-11-24T09:11:09.075Z,3.50
2022-11-24T09:13:36.598Z,3.53
2022-11-24T09:16:05.097Z,3.51
2022-11-24T09:18:32.807Z,3.54
2022-11-24T09:21:13.873Z,3.56
2022-11-24T09:23:41.900Z,3.56
2022-11-24T09:26:14.368Z,3.62
2022-11-24T09:28:42.055Z,3.69
2022-11-24T09:31:11.860Z,3.71
2022-11-24T09:33:39.747Z,3.77
2022-11-24T09:36:07.938Z,3.78
2022-11-24T09:38:35.368Z,3.81
2022-11-24T09:41:48.348Z,3.94
2022-11-24T09:44:34.065Z,4.01
2022-11-24T09:47:10.277Z,4.05
2022-11-24T09:50:10.007Z,4.18
2022-11-24T09:52:53.899Z,4.29
2022-11-24T09:55:29.916Z,4.35
2022-11-24T09:58:17.712Z,4.40
2022-11-24T10:00:47.272Z,4.41
2022-11-24T10:03:27.947Z,4.49
2022-11-24T10:05:55.445Z,4.40
2022-11-24T10:08:32.492Z,4.52
2022-11-24T10:11:01.324Z,4.49
2022-11-24T10:13:53.953Z,4.63
2022-11-24T10:16:27.451Z,4.61
2022-11-24T10:18:57.564Z,4.71
2022-11-24T10:21:35.234Z,4.73
2022-11-24T10:24:08.120Z,4.84
2022-11-24T10:26:37.204Z,4.94
2022-11-24T10:29:18.750Z,5.17
2022-11-24T10:31:46.213Z,5.36
2022-11-24T10:34:18.693Z,5.43
2022-11-24T10:36:54.849Z,5.64
2022-11-24T10:39:48.329Z,5.54
2022-11-24T10:42:18.858Z,5.54
2022-11-24T10:44:48.615Z,5.48
2022-11-24T10:47:22.657Z,5.76
2022-11-24T10:49:56.997Z,5.89
2022-11-24T10:52:25.764Z,5.87
2022-11-24T10:55:00.749Z,5.91
2022-11-24T10:57:33.934Z,5.96
2022-11-24T11:00:04.943Z,6.09
2022-11-24T11:02:39.564Z,6.37
2022-11-24T11:05:27.423Z,6.37
2022-11-24T11:08:16.380Z,6.35
2022-11-24T11:10:44.758Z,6.45
2022-11-24T11:13:31.371Z,6.37
2022-11-24T11:15:59.617Z,6.38
2022-11-24T11:18:33.624Z,6.44
2022-11-24T11:21:02.177Z,6.27
2022-11-24T11:23:31.617Z,6.20
2022-11-24T11:26:24.537Z,6.22
2022-11-24T11:35:04.104Z,6.21
2022-11-24T11:37:32.690Z,6.11
2022-11-24T11:40:00.293Z,6.01
2022-11-24T11:45:43.295Z,5.94
2022-11-24T11:48:43.194Z,5.90
2022-11-24T11:51:35.959Z,5.72
2022-11-24T11:54:03.371Z,5.75
2022-11-24T11:56:37.465Z,5.69
2022-11-24T11:59:13.733Z,5.63
2022-11-24T12:02:11.211Z,5.60
2022-11-24T12:04:52.717Z,5.64
2022-11-24T12:07:33.171Z,5.66
2022-11-24T12:10:12.671Z,5.64
2022-11-24T12:12:57.727Z,5.67
2022-11-24T12:15:43.250Z,5.73
2022-11-24T12:18:58.475Z,5.89
2022-11-24T12:21:34.479Z,5.95
2022-11-24T12:24:17.497Z,5.95
2022-11-24T12:27:15.678Z,5.95
2022-11-24T12:29:59.952Z,6.02
2022-11-24T12:32:47.402Z,6.10
2022-11-24T12:35:17.157Z,6.12
2022-11-24T12:38:03.424Z,6.12
2022-11-24T12:43:34.698Z,6.14
2022-11-24T12:46:38.427Z,6.07
2022-11-24T12:49:38.395Z,5.94
2022-11-24T12:52:13.031Z,5.86
2022-11-24T12:54:40.986Z,5.84
2022-11-24T12:57:17.311Z,5.77
2022-11-24T13:00:10.105Z,5.68
2022-11-24T13:02:47.560Z,5.65
2022-11-24T13:06:05.499Z,5.66
2022-11-24T13:08:35.046Z,5.58
2022-11-24T13:11:36.032Z,5.51
2022-11-24T13:14:07.644Z,5.48
2022-11-24T13:16:38.687Z,5.49
2022-11-24T13:19:20.661Z,5.47
2022-11-24T13:21:51.070Z,5.51
2022-11-24T13:24:19.403Z,5.48
2022-11-24T13:26:55.666Z,5.48
2022-11-24T13:29:30.340Z,5.43
2022-11-24T13:32:03.085Z,5.46
2022-11-24T13:34:39.899Z,5.46
2022-11-24T13:37:29.027Z,5.40
2022-11-24T13:40:11.838Z,5.36
2022-11-24T13:43:03.028Z,5.39
2022-11-24T13:45:39.370Z,5.40
2022-11-24T13:48:22.321Z,5.38
2022-11-24T13:50:50.063Z,5.33
2022-11-24T13:53:45.248Z,5.32
2022-11-24T13:56:13.687Z,5.35
2022-11-24T13:58:45.427Z,5.48
2022-11-24T14:01:32.626Z,5.53
2022-11-24T14:06:52.831Z,5.47
2022-11-24T14:09:21.801Z,5.43
2022-11-24T14:12:06.916Z,5.39
2022-11-24T14:14:34.457Z,5.35
2022-11-24T14:17:13.586Z,5.28
2022-11-24T14:19:42.437Z,5.29
2022-11-24T14:22:16.343Z,5.23
2022-11-24T14:24:45.440Z,5.25
2022-11-24T14:27:15.510Z,5.21
2022-11-24T14:30:01.886Z,5.17
2022-11-24T14:32:29.527Z,5.19
2022-11-24T14:34:56.974Z,5.14
2022-11-24T14:37:24.180Z,5.14
2022-11-24T14:39:52.705Z,5.12
2022-11-24T14:42:24.629Z,5.15
2022-11-24T14:44:55.763Z,5.10
2022-11-24T14:47:33.960Z,5.04
2022-11-24T14:50:16.008Z,5.06
2022-11-24T14:52:47.650Z,5.01
2022-11-24T14:55:25.976Z,4.93
2022-11-24T14:57:53.002Z,4.88
2022-11-24T15:00:31.261Z,4.82
2022-11-24T15:03:01.310Z,4.71
2022-11-24T15:06:00.536Z,4.68
2022-11-24T15:08:29.824Z,4.60
2022-11-24T15:11:04.340Z,4.52
2022-11-24T15:13:37.169Z,4.39
2022-11-24T15:16:15.312Z,4.32
2022-11-24T15:18:55.526Z,4.28
2022-11-24T15:21:34.079Z,4.25
2022-11-24T15:24:16.164Z,4.15
2022-11-24T15:26:44.228Z,4.11
2022-11-24T15:29:12.066Z,4.02
2022-11-24T15:31:40.234Z,3.99
2022-11-24T15:34:09.400Z,3.90
2022-11-24T15:36:36.402Z,3.85
2022-11-24T15:39:03.560Z,3.82
2022-11-24T15:41:32.436Z,3.81
2022-11-24T15:43:59.845Z,3.75
2022-11-24T15:46:37.693Z,3.68
2022-11-24T15:49:05.882Z,3.70
2022-11-24T15:51:33.021Z,3.66
2022-11-24T15:54:01.327Z,3.64
2022-11-24T15:56:34.197Z,3.62
2022-11-24T15:59:01.820Z,3.58
2022-11-24T16:01:32.071Z,3.56
2022-11-24T16:04:00.609Z,3.50
2022-11-24T16:06:27.731Z,3.37
2022-11-24T16:08:54.838Z,3.30
2022-11-24T16:11:22.737Z,3.26
2022-11-24T16:13:53.272Z,3.19
2022-11-24T16:16:25.320Z,3.13
2022-11-24T16:18:53.147Z,3.11
2022-11-24T16:21:20.144Z,3.07
2022-11-24T16:23:47.853Z,2.99
2022-11-24T16:26:15.192Z,2.96
2022-11-24T16:28:42.865Z,2.98
2022-11-24T16:31:09.941Z,2.93
2022-11-24T16:33:40.660Z,2.89
2022-11-24T16:36:08.194Z,2.84
2022-11-24T16:38:35.592Z,2.78
2022-11-24T16:41:03.000Z,2.77
2022-11-24T16:43:30.098Z,2.75
2022-11-24T16:46:11.233Z,2.73
2022-11-24T16:48:38.506Z,2.72
2022-11-24T16:51:12.002Z,2.74
2022-11-24T16:53:40.894Z,2.72
2022-11-24T16:56:08.329Z,2.70
2022-11-24T16:58:39.832Z,2.61
2022-11-24T17:01:09.039Z,2.54
2022-11-24T17:03:37.451Z,2.50
2022-11-24T17:06:06.795Z,2.46
2022-11-24T17:08:35.188Z,2.44
2022-11-24T17:11:12.792Z,2.38
2022-11-24T17:13:41.504Z,2.39
2022-11-24T17:16:11.497Z,2.35
2022-11-24T17:18:39.223Z,2.29
2022-11-24T17:21:10.013Z,2.28
2022-11-24T17:23:37.477Z,2.28
2022-11-24T17:26:06.692Z,2.28
2022-11-24T17:28:34.817Z,2.28
2022-11-24T17:31:09.258Z,2.27
2022-11-24T17:33:36.653Z,2.24
2022-11-24T17:36:05.118Z,2.25
2022-11-24T17:38:32.355Z,2.27
2022-11-24T17:40:59.687Z,2.24
2022-11-24T17:43:27.540Z,2.25
2022-11-24T17:45:56.078Z,2.28
2022-11-24T17:48:23.950Z,2.25
2022-11-24T17:51:10.332Z,2.25
2022-11-24T17:53:39.116Z,2.22
2022-11-24T17:56:07.046Z,2.22
2022-11-24T17:58:41.255Z,2.23
2022-11-24T18:01:11.115Z,2.19
2022-11-24T18:03:39.683Z,2.19
2022-11-24T18:06:11.510Z,2.19
2022-11-24T18:08:40.492Z,2.16
2022-11-24T18:11:12.835Z,2.16
2022-11-24T18:13:56.607Z,2.13
2022-11-24T18:16:29.846Z,2.15
2022-11-24T18:19:14.595Z,2.09
2022-11-24T18:21:42.349Z,2.10
2022-11-24T18:24:10.587Z,2.08
2022-11-24T18:26:38.498Z,2.07
2022-11-24T18:29:05.752Z,2.02
2022-11-24T18:31:35.384Z,2.02
2022-11-24T18:34:04.481Z,2.00
2022-11-24T18:36:35.131Z,1.95
2022-11-24T18:39:03.854Z,1.95
2022-11-24T18:41:31.021Z,1.95
2022-11-24T18:43:58.273Z,1.88
2022-11-24T18:46:25.609Z,1.89
2022-11-24T18:48:53.237Z,1.85
2022-11-24T18:51:22.675Z,1.83
2022-11-24T18:53:54.350Z,1.80
2022-11-24T18:56:21.626Z,1.74
2022-11-24T18:58:52.415Z,1.73
2022-11-24T19:01:22.541Z,1.68
2022-11-24T19:03:51.587Z,1.69
2022-11-24T19:06:32.844Z,1.62
2022-11-24T19:09:02.853Z,1.55
2022-11-24T19:11:35.507Z,1.54
2022-11-24T19:14:04.606Z,1.48
2022-11-24T19:16:32.023Z,1.49
2022-11-24T19:19:00.136Z,1.48
2022-11-24T19:21:28.425Z,1.47
2022-11-24T19:23:59.796Z,1.47
2022-11-24T19:26:30.354Z,1.48
2022-11-24T19:28:57.400Z,1.43
2022-11-24T19:31:25.546Z,1.42
2022-11-24T19:33:54.590Z,1.45
2022-11-24T19:36:22.788Z,1.50
2022-11-24T19:38:51.436Z,1.53
2022-11-24T19:41:20.338Z,1.56
2022-11-24T19:43:48.244Z,1.58
2022-11-24T19:46:17.547Z,1.56
2022-11-24T19:48:50.292Z,1.62
2022-11-24T19:51:20.050Z,1.67
2022-11-24T19:53:47.586Z,1.70
2022-11-24T19:56:17.007Z,1.75
2022-11-24T19:58:44.273Z,1.78
2022-11-24T20:01:16.506Z,1.77
2022-11-24T20:03:44.999Z,1.73
2022-11-24T20:06:14.892Z,1.71
2022-11-24T20:08:42.990Z,1.68
2022-11-24T20:11:18.570Z,1.67
2022-11-24T20:13:46.773Z,1.62
2022-11-24T20:16:30.020Z,1.58
2022-11-24T20:19:02.099Z,1.52
2022-11-24T20:21:32.871Z,1.42
2022-11-24T20:23:59.752Z,1.44
2022-11-24T20:26:35.131Z,1.41
2022-11-24T20:29:03.980Z,1.39
2022-11-24T20:31:35.622Z,1.35
2022-11-24T20:34:04.446Z,1.34
2022-11-24T20:36:32.607Z,1.33
2022-11-24T20:39:01.368Z,1.26
2022-11-24T20:41:30.746Z,1.28
2022-11-24T20:44:08.125Z,1.24
2022-11-24T20:46:37.748Z,1.26
2022-11-24T20:49:05.988Z,1.21
2022-11-24T20:51:35.968Z,1.26
2022-11-24T20:54:05.591Z,1.26
2022-11-24T20:56:35.271Z,1.25
2022-11-24T20:59:03.471Z,1.27
2022-11-24T21:01:38.342Z,1.28
2022-11-24T21:04:08.223Z,1.31
2022-11-24T21:06:35.622Z,1.34
2022-11-24T21:09:04.213Z,1.31
2022-11-24T21:11:32.255Z,1.31
2022-11-24T21:13:59.827Z,1.33
2022-11-24T21:16:29.566Z,1.33
2022-11-24T21:19:04.419Z,1.37
2022-11-24T21:21:34.698Z,1.36
2022-11-24T21:24:03.265Z,1.37
2022-11-24T21:26:30.305Z,1.34
2022-11-24T21:28:58.237Z,1.29
2022-11-24T21:31:25.304Z,1.23
2022-11-24T21:33:53.873Z,1.23
2022-11-24T21:36:23.795Z,1.24
2022-11-24T21:38:52.743Z,1.28
2022-11-24T21:41:21.016Z,1.24
2022-11-24T21:43:48.512Z,1.19
2022-11-24T21:46:15.914Z,1.10
2022-11-24T21:48:43.039Z,1.10
2022-11-24T21:51:13.286Z,1.08
2022-11-24T21:53:41.136Z,1.04
2022-11-24T21:56:12.919Z,1.02
2022-11-24T21:58:51.507Z,1.06
2022-11-24T22:01:20.059Z,1.05
2022-11-24T22:03:47.543Z,1.02
2022-11-24T22:06:16.609Z,1.05
2022-11-24T22:08:43.770Z,1.08
2022-11-24T22:11:18.009Z,1.10
2022-11-24T22:13:45.951Z,1.12
2022-11-24T22:16:21.609Z,1.19
2022-11-24T22:18:48.664Z,1.19
2022-11-24T22:21:18.241Z,1.15
2022-11-24T22:23:45.628Z,1.17
2022-11-24T22:26:17.460Z,1.20
2022-11-24T22:28:46.419Z,1.21
2022-11-24T22:31:19.037Z,1.23
2022-11-24T22:33:46.673Z,1.21
2022-11-24T22:36:14.704Z,1.29
2022-11-24T22:38:42.146Z,1.22
2022-11-24T22:41:12.560Z,1.28
2022-11-24T22:43:40.542Z,1.28
2022-11-24T22:46:12.557Z,1.23
2022-11-24T22:48:40.725Z,1.23
2022-11-24T22:51:13.039Z,1.22
2022-11-24T22:53:40.712Z,1.16
2022-11-24T22:56:10.663Z,1.20
2022-11-24T22:58:39.237Z,1.20
2022-11-24T23:01:14.626Z,1.17
2022-11-24T23:03:42.323Z,1.09
2022-11-24T23:06:30.382Z,1.13
2022-11-24T23:08:58.696Z,1.08
2022-11-24T23:11:34.912Z,1.05
2022-11-24T23:14:05.440Z,1.07
2022-11-24T23:16:32.788Z,1.04
2022-11-24T23:19:00.012Z,1.03
2022-11-24T23:21:28.989Z,0.99
2022-11-24T23:23:58.069Z,1.00
2022-11-24T23:26:31.030Z,1.05
2022-11-24T23:28:58.534Z,1.01
2022-11-24T23:31:30.175Z,1.03
2022-11-24T23:33:58.899Z,1.01
2022-11-24T23:36:26.830Z,1.04
2022-11-24T23:38:54.456Z,1.03
2022-11-24T23:41:24.223Z,1.03
2022-11-24T23:43:52.495Z,1.08
2022-11-24T23:46:24.757Z,1.03
2022-11-24T23:48:53.312Z,1.07
2022-11-24T23:51:31.078Z,0.99
2022-11-24T23:53:59.271Z,1.03
2022-11-24T23:56:33.857Z,1.07
2022-11-24T23:59:02.225Z,1.11
